sensor_id;sensor_type;location;lat;lon;timestamp;P1;durP1;ratioP1;P2;durP2;ratioP2
1106;SDS011;540;49.448;8.612;2023-11-19T00:00:32;6.43;;;5.15;;
1106;SDS011;540;49.448;8.612;2023-11-19T00:02:59;6.38;;;4.00;;
1106;SDS011;540;49.448;8.612;2023-11-19T00:05:28;6.00;;;4.32;;
1106;SDS011;540;49.448;8.612;2023-11-19T00:07:56;6.63;;;3.83;;
1106;SDS011;540;49.448;8.612;2023-11-19T00:10:25;4.85;;;3.88;;
1106;SDS011;540;49.448;8.612;2023-11-19T00:12:53;5.63;;;4.07;;
1106;SDS011;540;49.448;8.612;2023-11-19T00:15:23;4.25;;;3.70;;
1106;SDS011;540;49.448;8.612;2023-11-19T00:17:51;4.95;;;4.38;;
1106;SDS011;540;49.448;8.612;2023-11-19T00:20:20;4.88;;;3.78;;
1106;SDS011;540;49.448;8.612;2023-11-19T00:22:49;6.07;;;3.72;;
1106;SDS011;540;49.448;8.612;2023-11-19T00:25:18;4.70;;;3.70;;
1106;SDS011;540;49.448;8.612;2023-11-19T00:27:49;3.70;;;3.30;;
1106;SDS011;540;49.448;8.612;2023-11-19T00:30:17;4.38;;;3.80;;
1106;SDS011;540;49.448;8.612;2023-11-19T00:32:45;4.82;;;3.78;;
1106;SDS011;540;49.448;8.612;2023-11-19T00:35:13;3.60;;;3.10;;
1106;SDS011;540;49.448;8.612;2023-11-19T00:37:43;4.05;;;3.13;;
1106;SDS011;540;49.448;8.612;2023-11-19T00:40:13;3.40;;;2.90;;
1106;SDS011;540;49.448;8.612;2023-11-19T00:42:42;3.75;;;2.83;;
1106;SDS011;540;49.448;8.612;2023-11-19T00:45:12;5.35;;;2.90;;
1106;SDS011;540;49.448;8.612;2023-11-19T00:47:40;2.92;;;2.47;;
1106;SDS011;540;49.448;8.612;2023-11-19T00:50:08;3.75;;;2.90;;
1106;SDS011;540;49.448;8.612;2023-11-19T00:52:37;3.40;;;2.65;;
1106;SDS011;540;49.448;8.612;2023-11-19T00:55:06;3.58;;;2.60;;
1106;SDS011;540;49.448;8.612;2023-11-19T00:57:34;3.17;;;2.40;;
1106;SDS011;540;49.448;8.612;2023-11-19T01:00:03;3.42;;;2.47;;
1106;SDS011;540;49.448;8.612;2023-11-19T01:02:36;3.47;;;2.53;;
1106;SDS011;540;49.448;8.612;2023-11-19T01:05:07;2.25;;;2.00;;
1106;SDS011;540;49.448;8.612;2023-11-19T01:07:36;2.85;;;2.40;;
1106;SDS011;540;49.448;8.612;2023-11-19T01:10:05;2.92;;;2.00;;
1106;SDS011;540;49.448;8.612;2023-11-19T01:12:35;2.20;;;2.00;;
1106;SDS011;540;49.448;8.612;2023-11-19T01:15:04;3.03;;;2.22;;
1106;SDS011;540;49.448;8.612;2023-11-19T01:17:32;2.30;;;2.10;;
1106;SDS011;540;49.448;8.612;2023-11-19T01:20:02;3.50;;;2.10;;
1106;SDS011;540;49.448;8.612;2023-11-19T01:22:33;2.35;;;2.10;;
1106;SDS011;540;49.448;8.612;2023-11-19T01:25:01;2.78;;;2.10;;
1106;SDS011;540;49.448;8.612;2023-11-19T01:27:31;4.25;;;2.05;;
1106;SDS011;540;49.448;8.612;2023-11-19T01:30:00;3.30;;;2.05;;
1106;SDS011;540;49.448;8.612;2023-11-19T01:32:30;2.60;;;2.40;;
1106;SDS011;540;49.448;8.612;2023-11-19T01:34:58;3.15;;;2.10;;
1106;SDS011;540;49.448;8.612;2023-11-19T01:37:27;2.38;;;1.90;;
1106;SDS011;540;49.448;8.612;2023-11-19T01:39:55;2.70;;;1.83;;
1106;SDS011;540;49.448;8.612;2023-11-19T01:42:25;2.35;;;1.70;;
1106;SDS011;540;49.448;8.612;2023-11-19T01:44:57;1.90;;;1.70;;
1106;SDS011;540;49.448;8.612;2023-11-19T01:47:26;1.90;;;1.70;;
1106;SDS011;540;49.448;8.612;2023-11-19T01:49:55;1.85;;;1.40;;
1106;SDS011;540;49.448;8.612;2023-11-19T01:52:24;1.48;;;1.20;;
1106;SDS011;540;49.448;8.612;2023-11-19T01:54:54;1.95;;;1.75;;
1106;SDS011;540;49.448;8.612;2023-11-19T01:57:22;2.40;;;1.90;;
1106;SDS011;540;49.448;8.612;2023-11-19T01:59:51;3.58;;;1.80;;
1106;SDS011;540;49.448;8.612;2023-11-19T02:02:20;2.50;;;2.00;;
1106;SDS011;540;49.448;8.612;2023-11-19T02:04:49;1.83;;;1.70;;
1106;SDS011;540;49.448;8.612;2023-11-19T02:07:18;2.50;;;2.05;;
1106;SDS011;540;49.448;8.612;2023-11-19T02:09:47;2.60;;;1.90;;
1106;SDS011;540;49.448;8.612;2023-11-19T02:12:16;2.45;;;2.13;;
1106;SDS011;540;49.448;8.612;2023-11-19T02:14:44;2.13;;;1.92;;
1106;SDS011;540;49.448;8.612;2023-11-19T02:17:24;3.15;;;2.20;;
1106;SDS011;540;49.448;8.612;2023-11-19T02:19:53;2.53;;;2.17;;
1106;SDS011;540;49.448;8.612;2023-11-19T02:22:21;2.60;;;2.40;;
1106;SDS011;540;49.448;8.612;2023-11-19T02:24:51;2.25;;;2.05;;
1106;SDS011;540;49.448;8.612;2023-11-19T02:27:26;2.25;;;2.05;;
1106;SDS011;540;49.448;8.612;2023-11-19T02:30:01;2.60;;;2.40;;
1106;SDS011;540;49.448;8.612;2023-11-19T02:32:32;2.55;;;2.33;;
1106;SDS011;540;49.448;8.612;2023-11-19T02:35:00;2.20;;;2.00;;
1106;SDS011;540;49.448;8.612;2023-11-19T02:37:31;2.30;;;2.10;;
1106;SDS011;540;49.448;8.612;2023-11-19T02:39:58;2.33;;;2.13;;
1106;SDS011;540;49.448;8.612;2023-11-19T02:42:29;2.22;;;1.80;;
1106;SDS011;540;49.448;8.612;2023-11-19T02:44:57;2.50;;;1.50;;
1106;SDS011;540;49.448;8.612;2023-11-19T02:47:26;3.15;;;2.50;;
1106;SDS011;540;49.448;8.612;2023-11-19T02:49:56;1.92;;;1.80;;
1106;SDS011;540;49.448;8.612;2023-11-19T02:52:24;3.72;;;2.08;;
1106;SDS011;540;49.448;8.612;2023-11-19T02:54:52;2.33;;;2.13;;
1106;SDS011;540;49.448;8.612;2023-11-19T02:57:20;2.28;;;2.08;;
1106;SDS011;540;49.448;8.612;2023-11-19T02:59:48;2.10;;;1.90;;
1106;SDS011;540;49.448;8.612;2023-11-19T03:02:16;3.25;;;2.47;;
1106;SDS011;540;49.448;8.612;2023-11-19T03:04:46;2.75;;;2.28;;
1106;SDS011;540;49.448;8.612;2023-11-19T03:07:13;2.35;;;2.15;;
1106;SDS011;540;49.448;8.612;2023-11-19T03:09:41;3.67;;;2.08;;
1106;SDS011;540;49.448;8.612;2023-11-19T03:12:10;3.05;;;2.75;;
1106;SDS011;540;49.448;8.612;2023-11-19T03:14:38;2.15;;;1.95;;
1106;SDS011;540;49.448;8.612;2023-11-19T03:17:06;3.13;;;2.25;;
1106;SDS011;540;49.448;8.612;2023-11-19T03:19:36;3.13;;;2.15;;
1106;SDS011;540;49.448;8.612;2023-11-19T03:22:05;2.83;;;2.25;;
1106;SDS011;540;49.448;8.612;2023-11-19T03:24:33;2.45;;;2.25;;
1106;SDS011;540;49.448;8.612;2023-11-19T03:27:02;3.33;;;2.25;;
1106;SDS011;540;49.448;8.612;2023-11-19T03:29:30;3.00;;;2.70;;
1106;SDS011;540;49.448;8.612;2023-11-19T03:31:58;3.75;;;2.80;;
1106;SDS011;540;49.448;8.612;2023-11-19T03:34:27;3.00;;;2.67;;
1106;SDS011;540;49.448;8.612;2023-11-19T03:36:55;3.83;;;3.50;;
1106;SDS011;540;49.448;8.612;2023-11-19T03:39:24;3.67;;;3.17;;
1106;SDS011;540;49.448;8.612;2023-11-19T03:41:53;3.72;;;3.42;;
1106;SDS011;540;49.448;8.612;2023-11-19T03:44:22;4.13;;;3.20;;
1106;SDS011;540;49.448;8.612;2023-11-19T03:46:52;4.57;;;3.22;;
1106;SDS011;540;49.448;8.612;2023-11-19T03:49:20;3.50;;;3.20;;
1106;SDS011;540;49.448;8.612;2023-11-19T03:51:50;3.17;;;2.90;;
1106;SDS011;540;49.448;8.612;2023-11-19T03:54:18;3.38;;;3.05;;
1106;SDS011;540;49.448;8.612;2023-11-19T03:56:48;4.18;;;3.25;;
1106;SDS011;540;49.448;8.612;2023-11-19T03:59:15;3.65;;;3.30;;
1106;SDS011;540;49.448;8.612;2023-11-19T04:01:45;4.07;;;3.72;;
1106;SDS011;540;49.448;8.612;2023-11-19T04:04:13;5.57;;;3.78;;
1106;SDS011;540;49.448;8.612;2023-11-19T04:06:41;3.58;;;3.22;;
1106;SDS011;540;49.448;8.612;2023-11-19T04:09:09;4.03;;;3.63;;
1106;SDS011;540;49.448;8.612;2023-11-19T04:11:37;3.60;;;3.30;;
1106;SDS011;540;49.448;8.612;2023-11-19T04:14:07;3.28;;;2.97;;
1106;SDS011;540;49.448;8.612;2023-11-19T04:16:36;3.40;;;3.10;;
1106;SDS011;540;49.448;8.612;2023-11-19T04:19:04;4.85;;;3.13;;
1106;SDS011;540;49.448;8.612;2023-11-19T04:21:32;3.10;;;2.80;;
1106;SDS011;540;49.448;8.612;2023-11-19T04:24:00;2.97;;;2.78;;
1106;SDS011;540;49.448;8.612;2023-11-19T04:26:28;3.10;;;2.80;;
1106;SDS011;540;49.448;8.612;2023-11-19T04:28:57;4.13;;;2.83;;
1106;SDS011;540;49.448;8.612;2023-11-19T04:31:29;2.70;;;2.40;;
1106;SDS011;540;49.448;8.612;2023-11-19T04:33:58;2.53;;;2.33;;
1106;SDS011;540;49.448;8.612;2023-11-19T04:36:27;3.10;;;2.58;;
1106;SDS011;540;49.448;8.612;2023-11-19T04:38:56;2.85;;;2.55;;
1106;SDS011;540;49.448;8.612;2023-11-19T04:41:25;2.83;;;2.35;;
1106;SDS011;540;49.448;8.612;2023-11-19T04:43:53;4.88;;;2.03;;
1106;SDS011;540;49.448;8.612;2023-11-19T04:46:23;2.40;;;1.88;;
1106;SDS011;540;49.448;8.612;2023-11-19T04:48:52;4.70;;;2.00;;
1106;SDS011;540;49.448;8.612;2023-11-19T04:51:20;2.47;;;2.05;;
1106;SDS011;540;49.448;8.612;2023-11-19T04:53:48;2.20;;;1.90;;
1106;SDS011;540;49.448;8.612;2023-11-19T04:56:16;2.00;;;1.70;;
1106;SDS011;540;49.448;8.612;2023-11-19T04:58:45;2.40;;;2.20;;
1106;SDS011;540;49.448;8.612;2023-11-19T05:01:13;1.90;;;1.80;;
1106;SDS011;540;49.448;8.612;2023-11-19T05:03:43;3.38;;;2.33;;
1106;SDS011;540;49.448;8.612;2023-11-19T05:06:14;4.13;;;2.30;;
1106;SDS011;540;49.448;8.612;2023-11-19T05:08:43;2.50;;;2.30;;
1106;SDS011;540;49.448;8.612;2023-11-19T05:11:12;4.05;;;2.22;;
1106;SDS011;540;49.448;8.612;2023-11-19T05:13:44;3.97;;;2.25;;
1106;SDS011;540;49.448;8.612;2023-11-19T05:16:12;4.18;;;1.88;;
1106;SDS011;540;49.448;8.612;2023-11-19T05:18:41;3.85;;;2.15;;
1106;SDS011;540;49.448;8.612;2023-11-19T05:21:09;3.55;;;1.85;;
1106;SDS011;540;49.448;8.612;2023-11-19T05:23:38;2.75;;;1.95;;
1106;SDS011;540;49.448;8.612;2023-11-19T05:26:08;3.30;;;1.85;;
1106;SDS011;540;49.448;8.612;2023-11-19T05:28:37;3.00;;;2.20;;
1106;SDS011;540;49.448;8.612;2023-11-19T05:31:05;2.65;;;2.10;;
1106;SDS011;540;49.448;8.612;2023-11-19T05:33:33;4.63;;;2.17;;
1106;SDS011;540;49.448;8.612;2023-11-19T05:36:01;4.32;;;1.77;;
1106;SDS011;540;49.448;8.612;2023-11-19T05:38:29;2.38;;;1.83;;
1106;SDS011;540;49.448;8.612;2023-11-19T05:40:58;2.53;;;1.98;;
1106;SDS011;540;49.448;8.612;2023-11-19T05:43:26;4.22;;;2.20;;
1106;SDS011;540;49.448;8.612;2023-11-19T05:45:54;2.63;;;2.42;;
1106;SDS011;540;49.448;8.612;2023-11-19T05:48:22;2.78;;;2.40;;
1106;SDS011;540;49.448;8.612;2023-11-19T05:50:51;2.42;;;2.20;;
1106;SDS011;540;49.448;8.612;2023-11-19T05:53:19;3.80;;;2.00;;
1106;SDS011;540;49.448;8.612;2023-11-19T05:55:47;4.22;;;2.95;;
1106;SDS011;540;49.448;8.612;2023-11-19T05:58:24;2.40;;;2.15;;
1106;SDS011;540;49.448;8.612;2023-11-19T06:00:54;3.80;;;2.10;;
1106;SDS011;540;49.448;8.612;2023-11-19T06:03:22;2.60;;;2.38;;
1106;SDS011;540;49.448;8.612;2023-11-19T06:05:50;2.78;;;2.20;;
1106;SDS011;540;49.448;8.612;2023-11-19T06:08:20;3.33;;;2.67;;
1106;SDS011;540;49.448;8.612;2023-11-19T06:10:50;5.00;;;2.95;;
1106;SDS011;540;49.448;8.612;2023-11-19T06:13:21;4.53;;;2.30;;
1106;SDS011;540;49.448;8.612;2023-11-19T06:15:52;3.10;;;2.40;;
1106;SDS011;540;49.448;8.612;2023-11-19T06:18:21;4.82;;;2.53;;
1106;SDS011;540;49.448;8.612;2023-11-19T06:20:49;5.72;;;2.55;;
1106;SDS011;540;49.448;8.612;2023-11-19T06:23:17;2.67;;;2.30;;
1106;SDS011;540;49.448;8.612;2023-11-19T06:25:46;3.47;;;2.40;;
1106;SDS011;540;49.448;8.612;2023-11-19T06:28:14;2.58;;;2.05;;
1106;SDS011;540;49.448;8.612;2023-11-19T06:30:41;3.42;;;2.17;;
1106;SDS011;540;49.448;8.612;2023-11-19T06:33:14;2.88;;;2.20;;
1106;SDS011;540;49.448;8.612;2023-11-19T06:35:42;4.18;;;2.10;;
1106;SDS011;540;49.448;8.612;2023-11-19T06:38:10;4.65;;;2.17;;
1106;SDS011;540;49.448;8.612;2023-11-19T06:40:38;4.70;;;2.38;;
1106;SDS011;540;49.448;8.612;2023-11-19T06:43:07;2.47;;;1.90;;
1106;SDS011;540;49.448;8.612;2023-11-19T06:45:35;3.85;;;2.10;;
1106;SDS011;540;49.448;8.612;2023-11-19T06:48:04;2.13;;;1.63;;
1106;SDS011;540;49.448;8.612;2023-11-19T06:50:33;2.00;;;1.48;;
1106;SDS011;540;49.448;8.612;2023-11-19T06:53:01;2.00;;;1.63;;
1106;SDS011;540;49.448;8.612;2023-11-19T06:55:30;2.70;;;1.40;;
1106;SDS011;540;49.448;8.612;2023-11-19T06:57:59;2.05;;;1.50;;
1106;SDS011;540;49.448;8.612;2023-11-19T07:00:28;1.88;;;1.35;;
1106;SDS011;540;49.448;8.612;2023-11-19T07:02:59;4.78;;;1.85;;
1106;SDS011;540;49.448;8.612;2023-11-19T07:05:27;3.42;;;1.85;;
1106;SDS011;540;49.448;8.612;2023-11-19T07:08:00;4.90;;;1.83;;
1106;SDS011;540;49.448;8.612;2023-11-19T07:10:27;6.40;;;1.90;;
1106;SDS011;540;49.448;8.612;2023-11-19T07:12:56;2.90;;;1.63;;
1106;SDS011;540;49.448;8.612;2023-11-19T07:15:35;1.77;;;1.38;;
1106;SDS011;540;49.448;8.612;2023-11-19T07:18:03;2.13;;;1.65;;
1106;SDS011;540;49.448;8.612;2023-11-19T07:20:31;2.83;;;1.80;;
1106;SDS011;540;49.448;8.612;2023-11-19T07:23:00;2.92;;;2.33;;
1106;SDS011;540;49.448;8.612;2023-11-19T07:25:28;5.63;;;4.30;;
1106;SDS011;540;49.448;8.612;2023-11-19T07:27:56;4.15;;;3.75;;
1106;SDS011;540;49.448;8.612;2023-11-19T07:30:24;2.33;;;2.13;;
1106;SDS011;540;49.448;8.612;2023-11-19T07:32:52;4.40;;;1.85;;
1106;SDS011;540;49.448;8.612;2023-11-19T07:35:20;1.77;;;1.67;;
1106;SDS011;540;49.448;8.612;2023-11-19T07:37:49;2.30;;;1.95;;
1106;SDS011;540;49.448;8.612;2023-11-19T07:40:18;2.75;;;2.03;;
1106;SDS011;540;49.448;8.612;2023-11-19T07:42:46;3.60;;;1.88;;
1106;SDS011;540;49.448;8.612;2023-11-19T07:45:14;2.50;;;1.52;;
1106;SDS011;540;49.448;8.612;2023-11-19T07:47:42;2.35;;;1.50;;
1106;SDS011;540;49.448;8.612;2023-11-19T07:50:10;2.88;;;1.60;;
1106;SDS011;540;49.448;8.612;2023-11-19T07:52:40;1.98;;;1.70;;
1106;SDS011;540;49.448;8.612;2023-11-19T07:55:08;1.70;;;1.52;;
1106;SDS011;540;49.448;8.612;2023-11-19T07:57:37;2.17;;;1.98;;
1106;SDS011;540;49.448;8.612;2023-11-19T08:00:05;4.00;;;2.03;;
1106;SDS011;540;49.448;8.612;2023-11-19T08:02:38;3.03;;;1.40;;
1106;SDS011;540;49.448;8.612;2023-11-19T08:05:07;1.63;;;1.40;;
1106;SDS011;540;49.448;8.612;2023-11-19T08:07:35;1.98;;;1.35;;
1106;SDS011;540;49.448;8.612;2023-11-19T08:10:04;2.03;;;1.23;;
1106;SDS011;540;49.448;8.612;2023-11-19T08:12:37;2.88;;;1.60;;
1106;SDS011;540;49.448;8.612;2023-11-19T08:15:06;3.88;;;1.60;;
1106;SDS011;540;49.448;8.612;2023-11-19T08:17:34;1.75;;;1.30;;
1106;SDS011;540;49.448;8.612;2023-11-19T08:20:03;3.15;;;1.60;;
1106;SDS011;540;49.448;8.612;2023-11-19T08:22:36;3.03;;;1.90;;
1106;SDS011;540;49.448;8.612;2023-11-19T08:25:05;3.88;;;3.00;;
1106;SDS011;540;49.448;8.612;2023-11-19T08:27:33;2.80;;;2.13;;
1106;SDS011;540;49.448;8.612;2023-11-19T08:30:03;5.38;;;3.03;;
1106;SDS011;540;49.448;8.612;2023-11-19T08:32:32;3.75;;;3.05;;
1106;SDS011;540;49.448;8.612;2023-11-19T08:35:01;3.90;;;3.20;;
1106;SDS011;540;49.448;8.612;2023-11-19T08:37:30;3.63;;;2.72;;
1106;SDS011;540;49.448;8.612;2023-11-19T08:39:58;3.42;;;2.67;;
1106;SDS011;540;49.448;8.612;2023-11-19T08:42:27;3.72;;;2.72;;
1106;SDS011;540;49.448;8.612;2023-11-19T08:44:55;3.03;;;2.17;;
1106;SDS011;540;49.448;8.612;2023-11-19T08:47:25;3.50;;;2.35;;
1106;SDS011;540;49.448;8.612;2023-11-19T08:49:53;2.38;;;1.50;;
1106;SDS011;540;49.448;8.612;2023-11-19T08:52:24;3.72;;;1.55;;
1106;SDS011;540;49.448;8.612;2023-11-19T08:54:51;1.50;;;1.17;;
1106;SDS011;540;49.448;8.612;2023-11-19T08:57:20;1.25;;;1.02;;
1106;SDS011;540;49.448;8.612;2023-11-19T08:59:48;3.40;;;1.88;;
1106;SDS011;540;49.448;8.612;2023-11-19T09:02:16;3.35;;;1.30;;
1106;SDS011;540;49.448;8.612;2023-11-19T09:04:48;2.33;;;1.13;;
1106;SDS011;540;49.448;8.612;2023-11-19T09:07:20;2.53;;;1.42;;
1106;SDS011;540;49.448;8.612;2023-11-19T09:09:50;2.45;;;1.15;;
1106;SDS011;540;49.448;8.612;2023-11-19T09:12:19;3.58;;;1.00;;
1106;SDS011;540;49.448;8.612;2023-11-19T09:14:49;2.70;;;1.38;;
1106;SDS011;540;49.448;8.612;2023-11-19T09:17:19;1.45;;;1.25;;
1106;SDS011;540;49.448;8.612;2023-11-19T09:19:49;1.45;;;1.00;;
1106;SDS011;540;49.448;8.612;2023-11-19T09:22:19;4.63;;;2.13;;
1106;SDS011;540;49.448;8.612;2023-11-19T09:24:48;2.60;;;1.35;;
1106;SDS011;540;49.448;8.612;2023-11-19T09:27:17;2.88;;;1.27;;
1106;SDS011;540;49.448;8.612;2023-11-19T09:29:45;3.65;;;1.10;;
1106;SDS011;540;49.448;8.612;2023-11-19T09:32:16;6.38;;;1.25;;
1106;SDS011;540;49.448;8.612;2023-11-19T09:34:45;0.90;;;0.90;;
1106;SDS011;540;49.448;8.612;2023-11-19T09:37:15;2.38;;;1.10;;
1106;SDS011;540;49.448;8.612;2023-11-19T09:39:46;1.58;;;0.85;;
1106;SDS011;540;49.448;8.612;2023-11-19T09:42:13;1.38;;;0.90;;
1106;SDS011;540;49.448;8.612;2023-11-19T09:44:42;2.38;;;0.90;;
1106;SDS011;540;49.448;8.612;2023-11-19T09:47:11;2.03;;;1.25;;
1106;SDS011;540;49.448;8.612;2023-11-19T09:49:41;2.10;;;0.90;;
1106;SDS011;540;49.448;8.612;2023-11-19T09:52:09;5.20;;;2.53;;
1106;SDS011;540;49.448;8.612;2023-11-19T09:54:38;3.35;;;1.58;;
1106;SDS011;540;49.448;8.612;2023-11-19T09:57:06;2.63;;;1.25;;
1106;SDS011;540;49.448;8.612;2023-11-19T09:59:36;2.08;;;1.55;;
1106;SDS011;540;49.448;8.612;2023-11-19T10:02:06;3.00;;;1.45;;
1106;SDS011;540;49.448;8.612;2023-11-19T10:04:37;3.92;;;3.15;;
1106;SDS011;540;49.448;8.612;2023-11-19T10:07:07;2.97;;;1.80;;
1106;SDS011;540;49.448;8.612;2023-11-19T10:09:35;2.20;;;1.20;;
1106;SDS011;540;49.448;8.612;2023-11-19T10:12:04;1.45;;;1.27;;
1106;SDS011;540;49.448;8.612;2023-11-19T10:14:33;2.33;;;1.40;;
1106;SDS011;540;49.448;8.612;2023-11-19T10:17:06;3.42;;;2.15;;
1106;SDS011;540;49.448;8.612;2023-11-19T10:19:35;2.33;;;1.20;;
1106;SDS011;540;49.448;8.612;2023-11-19T10:22:04;4.32;;;1.73;;
1106;SDS011;540;49.448;8.612;2023-11-19T10:24:32;3.67;;;1.30;;
1106;SDS011;540;49.448;8.612;2023-11-19T10:27:07;2.22;;;1.30;;
1106;SDS011;540;49.448;8.612;2023-11-19T10:29:39;2.83;;;1.17;;
1106;SDS011;540;49.448;8.612;2023-11-19T10:32:07;2.63;;;0.93;;
1106;SDS011;540;49.448;8.612;2023-11-19T10:34:52;5.40;;;1.10;;
1106;SDS011;540;49.448;8.612;2023-11-19T10:37:31;3.08;;;1.00;;
1106;SDS011;540;49.448;8.612;2023-11-19T10:40:02;1.35;;;1.05;;
1106;SDS011;540;49.448;8.612;2023-11-19T10:42:34;1.75;;;1.13;;
1106;SDS011;540;49.448;8.612;2023-11-19T10:45:03;1.95;;;1.10;;
1106;SDS011;540;49.448;8.612;2023-11-19T10:47:31;1.80;;;1.00;;
1106;SDS011;540;49.448;8.612;2023-11-19T10:50:05;2.35;;;0.90;;
1106;SDS011;540;49.448;8.612;2023-11-19T10:52:36;2.58;;;1.00;;
1106;SDS011;540;49.448;8.612;2023-11-19T10:55:05;3.47;;;1.00;;
1106;SDS011;540;49.448;8.612;2023-11-19T10:57:39;2.88;;;1.35;;
1106;SDS011;540;49.448;8.612;2023-11-19T11:00:12;1.70;;;0.90;;
1106;SDS011;540;49.448;8.612;2023-11-19T11:02:45;4.35;;;1.80;;
1106;SDS011;540;49.448;8.612;2023-11-19T11:05:17;1.75;;;1.08;;
1106;SDS011;540;49.448;8.612;2023-11-19T11:07:50;2.00;;;0.82;;
1106;SDS011;540;49.448;8.612;2023-11-19T11:10:22;6.22;;;1.42;;
1106;SDS011;540;49.448;8.612;2023-11-19T11:12:54;3.08;;;1.42;;
1106;SDS011;540;49.448;8.612;2023-11-19T11:15:26;4.10;;;1.52;;
1106;SDS011;540;49.448;8.612;2023-11-19T11:17:57;3.55;;;1.40;;
1106;SDS011;540;49.448;8.612;2023-11-19T11:20:28;3.78;;;2.20;;
1106;SDS011;540;49.448;8.612;2023-11-19T11:23:02;4.03;;;2.45;;
1106;SDS011;540;49.448;8.612;2023-11-19T11:25:48;2.97;;;1.58;;
1106;SDS011;540;49.448;8.612;2023-11-19T11:28:28;2.42;;;1.52;;
1106;SDS011;540;49.448;8.612;2023-11-19T11:31:08;4.63;;;1.90;;
1106;SDS011;540;49.448;8.612;2023-11-19T11:33:48;4.85;;;1.85;;
1106;SDS011;540;49.448;8.612;2023-11-19T11:36:43;2.40;;;1.20;;
1106;SDS011;540;49.448;8.612;2023-11-19T11:39:17;3.80;;;1.50;;
1106;SDS011;540;49.448;8.612;2023-11-19T11:42:04;3.50;;;1.70;;
1106;SDS011;540;49.448;8.612;2023-11-19T11:45:00;2.00;;;1.63;;
1106;SDS011;540;49.448;8.612;2023-11-19T11:50:47;2.78;;;1.40;;
1106;SDS011;540;49.448;8.612;2023-11-19T11:53:18;7.00;;;2.15;;
1106;SDS011;540;49.448;8.612;2023-11-19T11:55:53;4.90;;;1.10;;
1106;SDS011;540;49.448;8.612;2023-11-19T11:58:25;3.15;;;1.50;;
1106;SDS011;540;49.448;8.612;2023-11-19T12:00:56;2.35;;;1.30;;
1106;SDS011;540;49.448;8.612;2023-11-19T12:03:27;2.15;;;0.90;;
1106;SDS011;540;49.448;8.612;2023-11-19T12:05:56;4.93;;;1.23;;
1106;SDS011;540;49.448;8.612;2023-11-19T12:08:26;2.40;;;1.00;;
1106;SDS011;540;49.448;8.612;2023-11-19T12:10:57;3.47;;;0.80;;
1106;SDS011;540;49.448;8.612;2023-11-19T12:13:29;2.50;;;1.05;;
1106;SDS011;540;49.448;8.612;2023-11-19T12:16:16;2.20;;;0.88;;
1106;SDS011;540;49.448;8.612;2023-11-19T12:18:44;1.38;;;0.50;;
1106;SDS011;540;49.448;8.612;2023-11-19T12:21:27;2.05;;;0.70;;
1106;SDS011;540;49.448;8.612;2023-11-19T12:23:57;1.70;;;0.85;;
1106;SDS011;540;49.448;8.612;2023-11-19T12:26:31;1.13;;;0.88;;
1106;SDS011;540;49.448;8.612;2023-11-19T12:29:00;4.32;;;0.80;;
1106;SDS011;540;49.448;8.612;2023-11-19T12:31:35;1.98;;;0.68;;
1106;SDS011;540;49.448;8.612;2023-11-19T12:34:07;2.97;;;0.98;;
1106;SDS011;540;49.448;8.612;2023-11-19T12:36:39;3.50;;;1.17;;
1106;SDS011;540;49.448;8.612;2023-11-19T12:39:10;3.85;;;0.93;;
1106;SDS011;540;49.448;8.612;2023-11-19T12:41:53;2.40;;;1.55;;
1106;SDS011;540;49.448;8.612;2023-11-19T12:44:21;4.88;;;1.55;;
1106;SDS011;540;49.448;8.612;2023-11-19T12:47:03;4.95;;;1.80;;
1106;SDS011;540;49.448;8.612;2023-11-19T12:49:33;6.18;;;1.13;;
1106;SDS011;540;49.448;8.612;2023-11-19T12:52:01;2.95;;;1.20;;
1106;SDS011;540;49.448;8.612;2023-11-19T12:54:35;2.50;;;1.10;;
1106;SDS011;540;49.448;8.612;2023-11-19T12:57:04;2.65;;;0.82;;
1106;SDS011;540;49.448;8.612;2023-11-19T12:59:32;2.95;;;0.90;;
1106;SDS011;540;49.448;8.612;2023-11-19T13:02:00;6.70;;;1.55;;
1106;SDS011;540;49.448;8.612;2023-11-19T13:04:33;3.47;;;1.25;;
1106;SDS011;540;49.448;8.612;2023-11-19T13:07:01;3.45;;;1.20;;
1106;SDS011;540;49.448;8.612;2023-11-19T13:09:31;1.92;;;0.90;;
1106;SDS011;540;49.448;8.612;2023-11-19T13:11:59;3.85;;;0.98;;
1106;SDS011;540;49.448;8.612;2023-11-19T13:14:38;1.90;;;0.70;;
1106;SDS011;540;49.448;8.612;2023-11-19T13:17:08;3.95;;;0.70;;
1106;SDS011;540;49.448;8.612;2023-11-19T13:19:37;3.63;;;0.98;;
1106;SDS011;540;49.448;8.612;2023-11-19T13:22:05;4.35;;;1.08;;
1106;SDS011;540;49.448;8.612;2023-11-19T13:24:33;10.40;;;5.00;;
1106;SDS011;540;49.448;8.612;2023-11-19T13:27:01;3.13;;;1.00;;
1106;SDS011;540;49.448;8.612;2023-11-19T13:29:30;2.22;;;0.80;;
1106;SDS011;540;49.448;8.612;2023-11-19T13:32:00;4.63;;;1.48;;
1106;SDS011;540;49.448;8.612;2023-11-19T13:34:30;3.33;;;1.00;;
1106;SDS011;540;49.448;8.612;2023-11-19T13:36:59;2.05;;;0.90;;
1106;SDS011;540;49.448;8.612;2023-11-19T13:39:27;1.58;;;0.70;;
1106;SDS011;540;49.448;8.612;2023-11-19T13:41:55;3.58;;;1.00;;
1106;SDS011;540;49.448;8.612;2023-11-19T13:44:39;2.75;;;0.75;;
1106;SDS011;540;49.448;8.612;2023-11-19T13:47:08;6.65;;;0.93;;
1106;SDS011;540;49.448;8.612;2023-11-19T13:49:36;2.00;;;0.90;;
1106;SDS011;540;49.448;8.612;2023-11-19T13:52:06;2.15;;;0.80;;
1106;SDS011;540;49.448;8.612;2023-11-19T13:54:34;2.63;;;1.08;;
1106;SDS011;540;49.448;8.612;2023-11-19T13:57:01;2.22;;;1.30;;
1106;SDS011;540;49.448;8.612;2023-11-19T13:59:30;2.78;;;1.20;;
1106;SDS011;540;49.448;8.612;2023-11-19T14:01:59;1.90;;;1.17;;
1106;SDS011;540;49.448;8.612;2023-11-19T14:04:25;2.20;;;0.90;;
1106;SDS011;540;49.448;8.612;2023-11-19T14:06:53;3.92;;;0.77;;
1106;SDS011;540;49.448;8.612;2023-11-19T14:09:23;3.63;;;1.60;;
1106;SDS011;540;49.448;8.612;2023-11-19T14:11:52;3.85;;;1.30;;
1106;SDS011;540;49.448;8.612;2023-11-19T14:14:20;6.07;;;2.53;;
1106;SDS011;540;49.448;8.612;2023-11-19T14:16:48;2.80;;;1.27;;
1106;SDS011;540;49.448;8.612;2023-11-19T14:19:16;4.35;;;0.90;;
1106;SDS011;540;49.448;8.612;2023-11-19T14:21:44;4.35;;;0.90;;
1106;SDS011;540;49.448;8.612;2023-11-19T14:24:12;10.93;;;2.05;;
1106;SDS011;540;49.448;8.612;2023-11-19T14:26:41;5.78;;;2.22;;
1106;SDS011;540;49.448;8.612;2023-11-19T14:29:09;6.32;;;2.25;;
1106;SDS011;540;49.448;8.612;2023-11-19T14:31:36;4.57;;;1.70;;
1106;SDS011;540;49.448;8.612;2023-11-19T14:34:06;3.83;;;1.30;;
1106;SDS011;540;49.448;8.612;2023-11-19T14:36:34;4.07;;;0.90;;
1106;SDS011;540;49.448;8.612;2023-11-19T14:39:02;3.88;;;1.20;;
1106;SDS011;540;49.448;8.612;2023-11-19T14:41:30;1.48;;;0.88;;
1106;SDS011;540;49.448;8.612;2023-11-19T14:44:00;11.25;;;1.40;;
1106;SDS011;540;49.448;8.612;2023-11-19T14:46:29;6.30;;;1.98;;
1106;SDS011;540;49.448;8.612;2023-11-19T14:48:57;2.95;;;1.20;;
1106;SDS011;540;49.448;8.612;2023-11-19T14:51:25;3.47;;;1.33;;
1106;SDS011;540;49.448;8.612;2023-11-19T14:53:52;5.68;;;1.05;;
1106;SDS011;540;49.448;8.612;2023-11-19T14:56:20;4.32;;;1.30;;
1106;SDS011;540;49.448;8.612;2023-11-19T14:58:48;4.20;;;1.40;;
1106;SDS011;540;49.448;8.612;2023-11-19T15:01:18;2.72;;;1.25;;
1106;SDS011;540;49.448;8.612;2023-11-19T15:03:46;4.53;;;1.10;;
1106;SDS011;540;49.448;8.612;2023-11-19T15:06:17;4.00;;;1.40;;
1106;SDS011;540;49.448;8.612;2023-11-19T15:08:45;2.95;;;1.40;;
1106;SDS011;540;49.448;8.612;2023-11-19T15:11:13;4.75;;;1.83;;
1106;SDS011;540;49.448;8.612;2023-11-19T15:13:41;4.00;;;1.48;;
1106;SDS011;540;49.448;8.612;2023-11-19T15:16:08;5.28;;;1.40;;
1106;SDS011;540;49.448;8.612;2023-11-19T15:18:39;5.10;;;1.60;;
1106;SDS011;540;49.448;8.612;2023-11-19T15:21:07;3.05;;;1.33;;
1106;SDS011;540;49.448;8.612;2023-11-19T15:23:35;5.40;;;1.92;;
1106;SDS011;540;49.448;8.612;2023-11-19T15:26:03;4.45;;;1.35;;
1106;SDS011;540;49.448;8.612;2023-11-19T15:28:33;5.90;;;2.08;;
1106;SDS011;540;49.448;8.612;2023-11-19T15:31:00;6.88;;;1.80;;
1106;SDS011;540;49.448;8.612;2023-11-19T15:33:28;7.72;;;1.48;;
1106;SDS011;540;49.448;8.612;2023-11-19T15:35:57;4.25;;;1.50;;
1106;SDS011;540;49.448;8.612;2023-11-19T15:38:26;3.97;;;1.55;;
1106;SDS011;540;49.448;8.612;2023-11-19T15:40:55;4.78;;;1.52;;
1106;SDS011;540;49.448;8.612;2023-11-19T15:43:23;3.47;;;1.25;;
1106;SDS011;540;49.448;8.612;2023-11-19T15:45:51;3.83;;;1.70;;
1106;SDS011;540;49.448;8.612;2023-11-19T15:48:19;5.05;;;1.95;;